Time;durP1;ratioP1;P1;durP2;ratioP2;P2;SDS_P1;SDS_P2;PMS_P1;PMS_P2;Temp;Humidity;BMP_temperature;BMP_pressure;BME280_temperature;BME280_humidity;BME280_pressure;Samples;Min_cycle;Max_cycle;Signal;HPM_P1;HPM_P2
2022/04/12 00:01:33;;;;;;;7.50;3.70;;;7.60;98.50;;;;;;5039941;28;20464;-59
2022/04/12 00:04:01;;;;;;;6.20;3.50;;;7.60;98.70;;;;;;5040651;28;20460;-59
2022/04/12 00:06:30;;;;;;;7.90;3.60;;;7.50;99.10;;;;;;5040143;28;20943;-59
2022/04/12 00:08:57;;;;;;;7.97;4.00;;;7.50;99.50;;;;;;5040272;28;20469;-59
2022/04/12 00:11:24;;;;;;;5.20;3.50;;;7.40;99.80;;;;;;5040748;28;20465;-58
2022/04/12 00:13:51;;;;;;;9.97;4.20;;;7.40;99.90;;;;;;5041172;28;20447;-58
2022/04/12 00:16:17;;;;;;;7.30;3.60;;;7.40;99.90;;;;;;5040830;28;20464;-54
2022/04/12 00:21:33;;;;;;;10.07;4.30;;;7.40;99.90;;;;;;5039457;28;20480;-55
2022/04/12 00:24:02;;;;;;;11.03;4.70;;;7.30;99.90;;;;;;5037946;28;20445;-56
2022/04/12 00:26:29;;;;;;;7.30;3.37;;;7.30;99.90;;;;;;5037498;28;20465;-58
2022/04/12 00:28:56;;;;;;;8.17;2.80;;;7.30;99.90;;;;;;5020842;28;20460;-59
2022/04/12 00:31:23;;;;;;;4.67;3.10;;;7.20;99.90;;;;;;5037906;28;20472;-57
2022/04/12 00:33:50;;;;;;;7.07;4.10;;;7.20;99.90;;;;;;5037983;28;20440;-56
2022/04/12 00:36:19;;;;;;;3.43;2.40;;;7.10;99.90;;;;;;5037861;28;20451;-58
2022/04/12 00:38:47;;;;;;;4.87;3.30;;;7.10;99.90;;;;;;5037829;28;20449;-59
2022/04/12 00:41:13;;;;;;;5.87;4.40;;;7.00;99.90;;;;;;5037835;28;20441;-56
2022/04/12 00:43:43;;;;;;;4.30;2.97;;;7.00;99.90;;;;;;5037604;28;20429;-55
2022/04/12 00:46:10;;;;;;;5.70;3.10;;;6.90;99.90;;;;;;5037300;28;20425;-55
2022/04/12 00:48:39;;;;;;;9.13;3.10;;;6.90;99.90;;;;;;5037435;28;20464;-58
2022/04/12 00:51:06;;;;;;;7.97;2.90;;;6.90;99.90;;;;;;5037647;28;20457;-57
2022/04/12 00:53:33;;;;;;;4.77;3.03;;;6.80;99.90;;;;;;5037931;28;20436;-57
2022/04/12 00:56:03;;;;;;;7.67;3.40;;;6.80;99.90;;;;;;5037828;28;20460;-59
2022/04/12 00:58:30;;;;;;;6.70;3.20;;;6.70;99.90;;;;;;5037426;28;20454;-54
2022/04/12 01:00:57;;;;;;;6.73;3.03;;;6.70;99.90;;;;;;5038139;28;20444;-57
2022/04/12 01:03:23;;;;;;;3.57;3.00;;;6.70;99.90;;;;;;5037410;28;20499;-58
2022/04/12 01:05:50;;;;;;;4.73;3.10;;;6.60;99.90;;;;;;5037808;28;20476;-56
2022/04/12 01:08:18;;;;;;;6.10;3.20;;;6.60;99.90;;;;;;5037400;28;20456;-59
2022/04/12 01:10:45;;;;;;;6.37;4.03;;;6.60;99.90;;;;;;5037741;28;20485;-59
2022/04/12 01:13:14;;;;;;;8.43;2.83;;;6.60;99.90;;;;;;5037499;28;20505;-55
2022/04/12 01:15:42;;;;;;;7.97;2.57;;;6.60;99.90;;;;;;5037399;28;20456;-55
2022/04/12 01:18:09;;;;;;;3.97;2.50;;;6.60;99.90;;;;;;5037481;28;20508;-55
2022/04/12 01:20:36;;;;;;;6.63;3.80;;;6.50;99.90;;;;;;5037348;28;20441;-56
2022/04/12 01:23:09;;;;;;;4.73;2.23;;;6.50;99.90;;;;;;5037572;28;20496;-59
2022/04/12 01:25:38;;;;;;;6.83;2.90;;;6.50;99.90;;;;;;5036959;28;20433;-58
2022/04/12 01:28:05;;;;;;;11.00;4.40;;;6.50;99.90;;;;;;5037070;28;20729;-56
2022/04/12 01:30:31;;;;;;;4.00;2.40;;;6.60;99.90;;;;;;5037105;28;20469;-56
2022/04/12 01:32:58;;;;;;;8.03;2.63;;;6.50;99.90;;;;;;5037015;28;20461;-56
2022/04/12 01:35:25;;;;;;;4.80;2.73;;;6.50;99.90;;;;;;5036717;28;20459;-55
2022/04/12 01:37:52;;;;;;;4.73;2.80;;;6.50;99.90;;;;;;5036690;28;20959;-59
2022/04/12 01:40:18;;;;;;;4.70;2.50;;;6.40;99.90;;;;;;5037315;28;20453;-59
2022/04/12 01:42:48;;;;;;;6.00;2.70;;;6.40;99.90;;;;;;5036820;28;20472;-59
2022/04/12 01:45:15;;;;;;;8.53;2.60;;;6.40;99.90;;;;;;5036683;28;20451;-58
2022/04/12 01:47:42;;;;;;;6.67;3.33;;;6.40;99.90;;;;;;5036450;28;20489;-58
2022/04/12 01:50:09;;;;;;;6.03;3.83;;;6.30;99.90;;;;;;5036753;28;20485;-59
2022/04/12 01:52:36;;;;;;;4.53;2.80;;;6.30;99.90;;;;;;5037085;28;20488;-56
2022/04/12 01:55:03;;;;;;;3.47;3.03;;;6.40;99.90;;;;;;5036616;28;20467;-60
2022/04/12 01:57:30;;;;;;;13.43;3.00;;;6.30;99.90;;;;;;5036398;28;20473;-59
2022/04/12 01:59:58;;;;;;;5.37;3.10;;;6.30;99.90;;;;;;5036660;28;20472;-56
2022/04/12 02:02:25;;;;;;;6.23;3.20;;;6.30;99.90;;;;;;5036309;28;20469;-59
2022/04/12 02:04:52;;;;;;;4.57;2.93;;;6.30;99.90;;;;;;5036430;28;20441;-58
2022/04/12 02:07:19;;;;;;;7.23;3.93;;;6.40;99.90;;;;;;5037073;28;20491;-54
2022/04/12 02:09:47;;;;;;;5.50;2.83;;;6.40;99.90;;;;;;5036448;28;20539;-59
2022/04/12 02:12:13;;;;;;;6.30;3.43;;;6.30;99.90;;;;;;5036593;28;20461;-58
2022/04/12 02:14:40;;;;;;;6.03;3.90;;;6.30;99.90;;;;;;5036565;28;20434;-58
2022/04/12 02:17:08;;;;;;;6.10;3.40;;;6.30;99.90;;;;;;5036965;28;20473;-57
2022/04/12 02:19:35;;;;;;;9.40;4.43;;;6.40;99.90;;;;;;5036893;28;20418;-58
2022/04/12 02:22:02;;;;;;;6.40;3.23;;;6.30;99.90;;;;;;5036544;28;20497;-58
2022/04/12 02:24:28;;;;;;;8.80;3.90;;;6.30;99.90;;;;;;5036871;28;20480;-60
2022/04/12 02:26:55;;;;;;;6.80;4.00;;;6.30;99.90;;;;;;5036779;28;20449;-54
2022/04/12 02:29:22;;;;;;;8.13;3.60;;;6.20;99.90;;;;;;5036190;28;20441;-55
2022/04/12 02:31:48;;;;;;;5.40;3.20;;;6.20;99.90;;;;;;5036329;28;20452;-55
2022/04/12 02:34:17;;;;;;;5.97;3.40;;;6.20;99.90;;;;;;5035544;28;20448;-58
2022/04/12 02:36:44;;;;;;;4.60;3.00;;;6.10;99.90;;;;;;5036172;28;20437;-56
2022/04/12 02:39:10;;;;;;;3.93;2.90;;;6.10;99.90;;;;;;5035496;28;20457;-57
2022/04/12 02:41:37;;;;;;;6.90;2.90;;;6.00;99.90;;;;;;5035750;28;20449;-55
2022/04/12 02:44:04;;;;;;;6.50;3.80;;;6.00;99.90;;;;;;5035479;28;20479;-54
2022/04/12 02:46:31;;;;;;;3.07;2.77;;;6.00;99.90;;;;;;5035412;28;20453;-59
2022/04/12 02:48:57;;;;;;;11.63;3.40;;;5.90;99.90;;;;;;5035274;28;20457;-57
2022/04/12 02:51:25;;;;;;;10.13;3.50;;;5.90;99.90;;;;;;5035448;28;20487;-54
2022/04/12 02:53:52;;;;;;;7.80;4.23;;;5.90;99.90;;;;;;5035368;28;20441;-56
2022/04/12 02:56:19;;;;;;;6.13;3.37;;;5.90;99.90;;;;;;5035766;28;20539;-58
2022/04/12 02:58:47;;;;;;;6.63;3.30;;;5.80;99.90;;;;;;5035295;28;20552;-56
2022/04/12 03:01:14;;;;;;;4.67;2.90;;;5.80;99.90;;;;;;5035782;28;20437;-59
2022/04/12 03:03:40;;;;;;;4.03;3.23;;;5.80;99.90;;;;;;5035120;28;20457;-57
2022/04/12 03:06:07;;;;;;;5.63;3.30;;;5.70;99.90;;;;;;5035448;28;20429;-52
2022/04/12 03:08:35;;;;;;;7.43;3.60;;;5.70;99.90;;;;;;5035471;28;20449;-58
2022/04/12 03:11:02;;;;;;;8.57;3.40;;;5.70;99.90;;;;;;5035520;28;20503;-58
2022/04/12 03:13:29;;;;;;;4.10;2.97;;;5.60;99.90;;;;;;5035522;28;20503;-56
2022/04/12 03:16:00;;;;;;;4.23;2.87;;;5.60;99.90;;;;;;5035518;28;20483;-57
2022/04/12 03:18:26;;;;;;;5.43;3.47;;;5.60;99.90;;;;;;5035805;28;20461;-60
2022/04/12 03:20:53;;;;;;;4.13;3.20;;;5.60;99.90;;;;;;5035667;28;20489;-56
2022/04/12 03:23:20;;;;;;;7.53;3.33;;;5.60;99.90;;;;;;5035389;28;20496;-59
2022/04/12 03:25:50;;;;;;;4.03;3.03;;;5.60;99.90;;;;;;5035477;28;20445;-58
2022/04/12 03:28:16;;;;;;;5.47;3.37;;;5.60;99.90;;;;;;5035419;28;20527;-59
2022/04/12 03:30:43;;;;;;;7.20;3.40;;;5.60;99.90;;;;;;5035210;28;20488;-56
2022/04/12 03:33:10;;;;;;;5.60;3.33;;;5.60;99.90;;;;;;5035162;28;20465;-54
2022/04/12 03:35:37;;;;;;;9.23;4.17;;;5.50;99.90;;;;;;5035364;28;20451;-57
2022/04/12 03:38:03;;;;;;;6.33;3.93;;;5.50;99.90;;;;;;5035165;28;20448;-58
2022/04/12 03:40:32;;;;;;;5.07;3.23;;;5.50;99.90;;;;;;5034944;28;20453;-58
2022/04/12 03:43:02;;;;;;;4.30;3.20;;;5.50;99.90;;;;;;5035236;28;20480;-55
2022/04/12 03:45:28;;;;;;;5.27;3.53;;;5.40;99.90;;;;;;5034960;28;20445;-56
2022/04/12 03:47:55;;;;;;;6.40;3.30;;;5.40;99.90;;;;;;5034811;28;20457;-58
2022/04/12 03:50:23;;;;;;;7.87;3.80;;;5.40;99.90;;;;;;5035031;28;20496;-58
2022/04/12 03:52:50;;;;;;;6.03;3.77;;;5.40;99.90;;;;;;5034763;28;20483;-60
2022/04/12 03:55:30;;;;;;;6.33;3.40;;;5.40;99.90;;;;;;5035082;28;20432;-57
2022/04/12 03:57:57;;;;;;;7.97;3.07;;;5.40;99.90;;;;;;5036838;28;20478;-59
2022/04/12 04:00:25;;;;;;;10.53;4.00;;;5.40;99.90;;;;;;5038765;28;20468;-58
2022/04/12 04:02:52;;;;;;;8.73;3.53;;;5.30;99.90;;;;;;5038526;28;20484;-55
2022/04/12 04:05:19;;;;;;;6.33;4.10;;;5.30;99.90;;;;;;5038792;28;20484;-57
2022/04/12 04:07:45;;;;;;;6.13;3.80;;;5.30;99.90;;;;;;5038512;28;20449;-57
2022/04/12 04:10:12;;;;;;;7.87;4.43;;;5.20;99.90;;;;;;5038126;28;20465;-55
2022/04/12 04:12:39;;;;;;;8.63;5.27;;;5.20;99.90;;;;;;5038150;28;20464;-59
2022/04/12 04:15:11;;;;;;;8.30;4.03;;;5.10;99.90;;;;;;5038626;28;20436;-58
2022/04/12 04:17:40;;;;;;;5.80;4.23;;;5.10;99.90;;;;;;5038604;28;20433;-57
2022/04/12 04:20:08;;;;;;;4.90;3.27;;;5.10;99.90;;;;;;5037781;28;20457;-56
2022/04/12 04:22:35;;;;;;;8.37;4.30;;;5.10;99.90;;;;;;5038687;28;20476;-57
2022/04/12 04:25:01;;;;;;;6.63;3.97;;;5.10;99.90;;;;;;5039231;28;20429;-56
2022/04/12 04:27:31;;;;;;;9.83;4.97;;;5.10;99.90;;;;;;5038397;28;20445;-57
2022/04/12 04:29:57;;;;;;;4.50;3.50;;;5.10;99.90;;;;;;5038158;28;20464;-58
2022/04/12 04:32:25;;;;;;;6.40;3.40;;;5.10;99.90;;;;;;5038619;28;20441;-59
2022/04/12 04:34:53;;;;;;;6.87;4.53;;;5.10;99.90;;;;;;5038524;28;20433;-57
2022/04/12 04:37:20;;;;;;;7.57;3.87;;;5.10;99.90;;;;;;5038051;28;20444;-57
2022/04/12 04:39:46;;;;;;;8.33;5.20;;;5.10;99.90;;;;;;5037540;28;20457;-57
2022/04/12 04:42:13;;;;;;;5.60;3.90;;;5.10;99.90;;;;;;5037933;28;20445;-58
2022/04/12 04:44:40;;;;;;;5.93;4.23;;;5.10;99.90;;;;;;5037588;28;20472;-59
2022/04/12 04:47:07;;;;;;;7.13;3.93;;;5.10;99.90;;;;;;5038052;28;20453;-57
2022/04/12 04:49:34;;;;;;;7.57;4.67;;;5.10;99.90;;;;;;5038086;28;20476;-57
2022/04/12 04:52:01;;;;;;;8.80;4.47;;;5.10;99.90;;;;;;5037797;28;20481;-56
2022/04/12 04:54:28;;;;;;;10.53;5.03;;;5.10;99.90;;;;;;5037919;28;20445;-54
2022/04/12 04:56:56;;;;;;;8.70;4.40;;;5.10;99.90;;;;;;5037520;28;20453;-55
2022/04/12 04:59:24;;;;;;;7.80;4.90;;;5.10;99.90;;;;;;5037715;28;20469;-56
2022/04/12 05:01:51;;;;;;;5.37;4.77;;;5.10;99.90;;;;;;5037285;28;20465;-57
2022/04/12 05:04:18;;;;;;;10.03;4.50;;;5.10;99.90;;;;;;5037701;28;20469;-60
2022/04/12 05:06:45;;;;;;;8.50;4.00;;;5.20;99.90;;;;;;5122762;23;20488;-55
2022/04/12 05:09:13;;;;;;;10.73;5.70;;;5.10;99.90;;;;;;5037855;28;20449;-54
2022/04/12 05:11:40;;;;;;;9.60;3.67;;;5.10;99.90;;;;;;5037601;28;20495;-52
2022/04/12 05:14:06;;;;;;;9.90;5.27;;;5.20;99.90;;;;;;5037652;28;20464;-55
2022/04/12 05:16:33;;;;;;;13.47;4.20;;;5.20;99.90;;;;;;5038066;28;20455;-54
2022/04/12 05:19:00;;;;;;;10.13;4.67;;;5.20;99.90;;;;;;5037510;28;20496;-53
2022/04/12 05:21:26;;;;;;;6.73;5.00;;;5.20;99.90;;;;;;5038022;28;20437;-53
2022/04/12 05:23:53;;;;;;;7.30;4.27;;;5.30;99.90;;;;;;5037639;28;20473;-52
2022/04/12 05:26:23;;;;;;;6.90;5.63;;;5.30;99.90;;;;;;5037785;28;20476;-53
2022/04/12 05:28:49;;;;;;;9.23;4.77;;;5.30;99.90;;;;;;5037368;28;20481;-53
2022/04/12 05:31:19;;;;;;;8.30;3.90;;;5.30;99.90;;;;;;5037540;28;20471;-49
2022/04/12 05:33:46;;;;;;;7.70;4.33;;;5.30;99.90;;;;;;5037376;28;20483;-51
2022/04/12 05:36:13;;;;;;;5.63;4.40;;;5.40;99.90;;;;;;5037246;28;20444;-57
2022/04/12 05:38:39;;;;;;;15.00;4.97;;;5.40;99.90;;;;;;5036656;28;20473;-55
2022/04/12 05:41:06;;;;;;;8.33;5.67;;;5.50;99.90;;;;;;5036227;28;20437;-56
2022/04/12 05:43:34;;;;;;;9.20;6.23;;;5.50;99.90;;;;;;5036535;28;20457;-54
2022/04/12 05:46:01;;;;;;;10.30;5.30;;;5.60;99.90;;;;;;5037109;28;20433;-56
2022/04/12 05:48:27;;;;;;;11.97;5.10;;;5.60;99.90;;;;;;5036757;28;20442;-52
2022/04/12 05:50:54;;;;;;;10.00;4.50;;;5.70;99.90;;;;;;5036628;28;20460;-54
2022/04/12 05:53:22;;;;;;;5.87;4.87;;;5.80;99.90;;;;;;5036422;28;20437;-54
2022/04/12 05:55:51;;;;;;;11.57;5.67;;;5.80;99.90;;;;;;5035975;28;20425;-54
2022/04/12 05:58:19;;;;;;;6.53;4.70;;;5.90;99.90;;;;;;5036036;28;20432;-52
2022/04/12 06:00:47;;;;;;;10.10;5.43;;;6.00;99.90;;;;;;5035215;28;20458;-52
2022/04/12 06:03:14;;;;;;;7.27;4.33;;;6.00;99.90;;;;;;5035378;28;20445;-56
2022/04/12 06:05:40;;;;;;;16.37;5.77;;;6.10;99.90;;;;;;5035175;28;20906;-52
2022/04/12 06:08:07;;;;;;;6.40;4.60;;;6.30;99.90;;;;;;5035227;28;20481;-54
2022/04/12 06:10:34;;;;;;;7.30;5.13;;;6.40;99.90;;;;;;5035100;28;20445;-52
2022/04/12 06:13:03;;;;;;;9.23;5.07;;;6.50;99.90;;;;;;5034394;28;20479;-55
2022/04/12 06:15:29;;;;;;;10.00;5.20;;;6.60;99.90;;;;;;5034682;28;20495;-55
2022/04/12 06:17:57;;;;;;;9.50;5.13;;;6.60;99.90;;;;;;5034975;28;20445;-54
2022/04/12 06:20:24;;;;;;;11.30;5.30;;;6.70;99.90;;;;;;5033863;28;20461;-54
2022/04/12 06:22:51;;;;;;;8.17;4.57;;;6.80;99.90;;;;;;5034342;28;20540;-57
2022/04/12 06:25:19;;;;;;;9.20;5.63;;;6.80;99.90;;;;;;5033819;28;20476;-57
2022/04/12 06:27:50;;;;;;;7.93;5.07;;;6.90;99.90;;;;;;5033918;28;20469;-55
2022/04/12 06:30:19;;;;;;;6.47;4.90;;;6.90;99.90;;;;;;5033430;28;20479;-53
2022/04/12 06:32:47;;;;;;;8.20;5.07;;;7.00;99.90;;;;;;5033595;28;20497;-57
2022/04/12 06:35:16;;;;;;;9.17;4.70;;;7.10;99.90;;;;;;5033435;28;20480;-53
2022/04/12 06:37:44;;;;;;;10.43;4.27;;;7.20;99.90;;;;;;5033451;28;20472;-49
2022/04/12 06:40:13;;;;;;;6.70;5.40;;;7.20;99.90;;;;;;5033867;28;20457;-54
2022/04/12 06:42:40;;;;;;;13.57;5.80;;;7.40;99.90;;;;;;5033213;28;20496;-53
2022/04/12 06:45:08;;;;;;;15.23;5.30;;;7.40;99.90;;;;;;5032927;28;20468;-52
2022/04/12 06:47:35;;;;;;;12.67;5.03;;;7.50;99.90;;;;;;5032595;28;20441;-56
2022/04/12 06:50:02;;;;;;;7.87;4.80;;;7.60;99.90;;;;;;5031745;28;20515;-56
2022/04/12 06:52:30;;;;;;;7.50;4.90;;;7.70;99.90;;;;;;5031319;28;20541;-52
2022/04/12 06:54:56;;;;;;;13.17;5.50;;;7.90;99.90;;;;;;5031883;28;20496;-56
2022/04/12 06:57:24;;;;;;;7.50;5.33;;;8.00;99.90;;;;;;5031667;28;20433;-53
2022/04/12 06:59:51;;;;;;;19.60;10.40;;;8.10;99.90;;;;;;5030957;28;20457;-56
2022/04/12 07:02:18;;;;;;;9.10;7.03;;;8.20;99.90;;;;;;5030582;28;20455;-56
2022/04/12 07:04:44;;;;;;;11.73;6.00;;;8.40;99.90;;;;;;5030789;28;20500;-57
2022/04/12 07:07:11;;;;;;;9.00;5.23;;;8.50;99.90;;;;;;5030550;28;20784;-55
2022/04/12 07:09:39;;;;;;;6.77;4.40;;;8.60;99.90;;;;;;5031139;28;20473;-55
2022/04/12 07:12:07;;;;;;;10.20;4.70;;;8.80;99.90;;;;;;5029780;28;20571;-53
2022/04/12 07:14:34;;;;;;;12.53;5.43;;;8.90;99.90;;;;;;5030075;28;20481;-55
2022/04/12 07:17:03;;;;;;;8.77;4.50;;;9.00;99.90;;;;;;5029055;28;20503;-55
2022/04/12 07:19:30;;;;;;;9.33;5.07;;;9.10;99.90;;;;;;5028901;28;20477;-54
2022/04/12 07:21:57;;;;;;;6.63;4.03;;;9.20;99.90;;;;;;5028955;28;20429;-54
2022/04/12 07:24:23;;;;;;;8.90;4.67;;;9.30;99.90;;;;;;5029460;28;20537;-55
2022/04/12 07:26:51;;;;;;;11.17;5.73;;;9.50;99.90;;;;;;5029911;28;20433;-56
2022/04/12 07:29:18;;;;;;;20.33;12.13;;;9.60;99.90;;;;;;5028154;28;20457;-56
2022/04/12 07:31:45;;;;;;;9.23;4.80;;;9.80;99.90;;;;;;5030284;28;20477;-55
2022/04/12 07:34:14;;;;;;;6.30;4.30;;;10.00;99.90;;;;;;5031455;28;20456;-56
2022/04/12 07:36:47;;;;;;;8.33;4.20;;;10.10;99.90;;;;;;5031258;28;20429;-52
2022/04/12 07:39:13;;;;;;;6.17;4.30;;;10.30;99.90;;;;;;5030640;28;20452;-56
2022/04/12 07:41:40;;;;;;;7.23;4.37;;;10.50;99.90;;;;;;5031556;28;20449;-56
2022/04/12 07:44:09;;;;;;;15.33;5.97;;;10.60;99.90;;;;;;5030967;28;20508;-53
2022/04/12 07:46:35;;;;;;;7.83;4.17;;;10.80;98.40;;;;;;5029894;28;20448;-56
2022/04/12 07:49:04;;;;;;;8.30;3.30;;;11.00;97.30;;;;;;5028744;28;20477;-56
2022/04/12 07:51:30;;;;;;;5.23;4.00;;;11.10;96.60;;;;;;5028709;28;20488;-53
2022/04/12 07:53:57;;;;;;;5.43;4.17;;;11.30;94.80;;;;;;5028906;28;20448;-56
2022/04/12 07:56:24;;;;;;;13.47;4.43;;;11.50;93.60;;;;;;5028475;28;20441;-52
2022/04/12 07:58:50;;;;;;;15.63;4.07;;;11.70;93.30;;;;;;5027644;28;20476;-55
2022/04/12 08:01:19;;;;;;;6.53;3.90;;;11.90;92.10;;;;;;5028271;28;20456;-57
2022/04/12 08:03:46;;;;;;;6.37;3.00;;;12.20;90.90;;;;;;5027120;28;20459;-52
2022/04/12 08:06:13;;;;;;;6.53;4.17;;;12.80;90.20;;;;;;5025258;28;20480;-53
2022/04/12 08:08:40;;;;;;;11.77;8.67;;;14.10;85.20;;;;;;5023634;28;20460;-54
2022/04/12 08:11:07;;;;;;;7.97;4.80;;;16.00;75.90;;;;;;5022510;28;20559;-54
2022/04/12 08:13:35;;;;;;;5.23;4.70;;;17.80;66.50;;;;;;5021948;28;20460;-56
2022/04/12 08:16:01;;;;;;;8.63;5.20;;;19.60;57.40;;;;;;5021745;28;20449;-56
2022/04/12 08:18:30;;;;;;;6.73;3.90;;;21.10;52.40;;;;;;5020809;28;20449;-57
2022/04/12 08:20:59;;;;;;;4.80;3.30;;;22.40;46.90;;;;;;5021143;28;20499;-53
2022/04/12 08:23:26;;;;;;;5.13;4.63;;;23.40;43.90;;;;;;5020417;28;20534;-53
2022/04/12 08:25:53;;;;;;;8.23;3.90;;;24.00;41.20;;;;;;5020853;28;20469;-53
2022/04/12 08:28:21;;;;;;;9.30;6.17;;;24.40;39.60;;;;;;5020212;28;20459;-54
2022/04/12 08:30:48;;;;;;;6.13;4.10;;;24.40;38.90;;;;;;5020590;28;20476;-57
2022/04/12 08:33:15;;;;;;;5.90;3.97;;;24.80;38.30;;;;;;5020866;28;20495;-57
2022/04/12 08:35:44;;;;;;;4.83;3.53;;;24.90;37.40;;;;;;5020676;28;20469;-56
2022/04/12 08:38:11;;;;;;;7.67;4.40;;;24.90;36.80;;;;;;5020258;28;20947;-54
2022/04/12 08:40:39;;;;;;;5.03;3.10;;;24.80;36.60;;;;;;5022200;28;20479;-55
2022/04/12 08:43:08;;;;;;;7.63;4.13;;;24.90;35.70;;;;;;5021197;28;20452;-56
2022/04/12 08:45:37;;;;;;;5.90;4.13;;;24.90;35.30;;;;;;5021023;28;20477;-56
2022/04/12 08:48:06;;;;;;;4.50;4.10;;;24.70;35.90;;;;;;5020641;28;20463;-50
2022/04/12 08:50:35;;;;;;;7.63;4.70;;;24.60;35.10;;;;;;5020235;28;20473;-55
2022/04/12 08:53:04;;;;;;;4.37;3.63;;;24.30;35.30;;;;;;5022233;28;20507;-55
2022/04/12 08:55:32;;;;;;;7.47;4.47;;;23.90;35.10;;;;;;5021900;28;20483;-54
2022/04/12 08:57:59;;;;;;;6.20;4.27;;;23.10;35.70;;;;;;5022336;28;20457;-52
2022/04/12 09:00:26;;;;;;;5.30;4.13;;;22.70;36.10;;;;;;5021368;28;20468;-50
2022/04/12 09:02:59;;;;;;;8.60;4.43;;;22.20;36.00;;;;;;5021254;28;20441;-46
2022/04/12 09:05:27;;;;;;;10.47;6.60;;;21.80;37.40;;;;;;5020369;28;20543;-50
2022/04/12 09:07:54;;;;;;;6.07;4.23;;;21.30;37.10;;;;;;5020930;28;20445;-55
2022/04/12 09:10:32;;;;;;;8.63;4.57;;;21.10;37.40;;;;;;5020355;28;20465;-51
2022/04/12 09:13:09;;;;;;;6.90;4.73;;;20.90;37.90;;;;;;5020330;28;20469;-56
2022/04/12 09:15:42;;;;;;;12.40;5.37;;;20.70;38.00;;;;;;5020249;28;20468;-55
2022/04/12 09:18:09;;;;;;;10.80;5.00;;;20.40;37.70;;;;;;5020614;28;20457;-55
2022/04/12 09:20:36;;;;;;;7.03;4.23;;;20.20;38.50;;;;;;5020929;28;20499;-56
2022/04/12 09:23:03;;;;;;;7.17;4.73;;;20.10;39.00;;;;;;5021160;28;20430;-55
2022/04/12 09:25:31;;;;;;;9.43;5.60;;;19.90;38.40;;;;;;5020529;28;20469;-55
2022/04/12 09:28:03;;;;;;;5.73;4.73;;;19.90;38.80;;;;;;5020907;28;20972;-57
2022/04/12 09:30:32;;;;;;;7.90;5.37;;;19.80;39.30;;;;;;5020150;28;20468;-55
2022/04/12 09:32:58;;;;;;;4.97;4.17;;;19.90;39.80;;;;;;5020006;28;20480;-56
2022/04/12 09:35:25;;;;;;;9.70;4.77;;;20.00;38.70;;;;;;5020531;28;20799;-56
2022/04/12 09:37:54;;;;;;;4.40;3.97;;;20.40;38.00;;;;;;5020141;28;20444;-56
2022/04/12 09:40:21;;;;;;;8.67;5.10;;;20.70;38.00;;;;;;5019580;28;20472;-55
2022/04/12 09:42:51;;;;;;;8.83;4.90;;;20.90;37.90;;;;;;5020078;28;20730;-56
2022/04/12 09:45:23;;;;;;;5.17;4.20;;;21.00;38.40;;;;;;5019719;28;20463;-55
2022/04/12 09:47:51;;;;;;;7.07;4.53;;;21.20;37.40;;;;;;5020299;28;20441;-54
2022/04/12 09:50:21;;;;;;;9.37;5.40;;;21.40;37.00;;;;;;5020380;28;20449;-57
2022/04/12 09:52:54;;;;;;;6.40;4.43;;;21.70;37.20;;;;;;5019810;28;20469;-54
2022/04/12 09:55:34;;;;;;;6.40;4.67;;;22.10;36.90;;;;;;5018733;28;20433;-57
2022/04/12 09:58:04;;;;;;;5.83;4.90;;;22.20;36.40;;;;;;5019794;28;20520;-54
2022/04/12 10:00:31;;;;;;;6.53;5.43;;;22.30;36.30;;;;;;5019460;28;20456;-56
2022/04/12 10:03:00;;;;;;;5.23;4.33;;;22.40;37.20;;;;;;5019225;28;20464;-54
2022/04/12 10:05:28;;;;;;;4.67;3.93;;;22.40;36.60;;;;;;5018732;28;20476;-55
2022/04/12 10:07:57;;;;;;;6.63;4.90;;;22.40;36.60;;;;;;5019525;28;20473;-56
2022/04/12 10:10:25;;;;;;;5.77;4.60;;;22.10;36.80;;;;;;5018755;28;20592;-55
2022/04/12 10:12:53;;;;;;;7.10;4.00;;;22.00;37.30;;;;;;5018725;28;20959;-55
2022/04/12 10:15:23;;;;;;;7.80;4.57;;;21.90;36.90;;;;;;5018863;28;20460;-56
2022/04/12 10:17:53;;;;;;;8.80;4.80;;;21.80;37.10;;;;;;5019110;28;20438;-56
2022/04/12 10:20:22;;;;;;;6.97;4.00;;;21.60;37.50;;;;;;5019227;28;20457;-56
2022/04/12 10:22:50;;;;;;;7.00;4.47;;;21.50;37.90;;;;;;5019474;28;20457;-55
2022/04/12 10:25:21;;;;;;;6.70;4.60;;;21.40;37.20;;;;;;5021445;28;20545;-56
2022/04/12 10:27:49;;;;;;;6.53;4.40;;;21.20;37.20;;;;;;5021485;28;20452;-54
2022/04/12 10:30:27;;;;;;;7.10;4.17;;;21.00;36.60;;;;;;5020117;28;20456;-56
2022/04/12 10:33:01;;;;;;;6.67;4.40;;;20.90;37.20;;;;;;5019440;28;20958;-56
2022/04/12 10:35:29;;;;;;;7.47;4.33;;;20.80;37.40;;;;;;5018823;28;20455;-54
2022/04/12 10:37:57;;;;;;;5.53;4.67;;;20.90;37.90;;;;;;5018649;28;20846;-54
2022/04/12 10:40:26;;;;;;;7.07;5.20;;;21.00;38.30;;;;;;5019027;28;20453;-56
2022/04/12 10:42:55;;;;;;;6.87;4.30;;;21.10;38.10;;;;;;5019013;28;20440;-54
2022/04/12 10:45:32;;;;;;;8.80;5.63;;;21.10;37.40;;;;;;5018987;28;20464;-54
2022/04/12 10:48:00;;;;;;;6.97;5.27;;;21.10;37.80;;;;;;5019106;28;20465;-54
2022/04/12 10:50:28;;;;;;;5.30;4.73;;;21.00;37.50;;;;;;5018963;28;20444;-50
2022/04/12 10:52:54;;;;;;;6.13;4.10;;;21.00;37.60;;;;;;5019067;28;20979;-53
2022/04/12 10:55:23;;;;;;;6.00;4.37;;;20.80;37.70;;;;;;5018466;28;20456;-55
2022/04/12 10:57:52;;;;;;;8.50;5.03;;;20.30;37.80;;;;;;5018716;28;20460;-53
2022/04/12 11:00:20;;;;;;;7.67;4.97;;;20.10;38.90;;;;;;5018838;28;20452;-55
2022/04/12 11:02:58;;;;;;;6.33;4.40;;;20.00;39.80;;;;;;5018956;28;20445;-54
2022/04/12 11:06:05;;;;;;;6.00;4.47;;;19.80;39.40;;;;;;5018290;28;20943;-56
2022/04/12 11:08:46;;;;;;;5.50;4.23;;;19.90;39.40;;;;;;5017270;28;20452;-54
2022/04/12 11:11:20;;;;;;;6.43;4.40;;;19.70;39.70;;;;;;5018603;28;20567;-56
2022/04/12 11:13:50;;;;;;;6.30;4.17;;;19.80;39.40;;;;;;5018950;28;20560;-56
2022/04/12 11:16:19;;;;;;;5.60;4.17;;;19.70;39.30;;;;;;5018838;28;20569;-55
2022/04/12 11:18:49;;;;;;;8.57;4.90;;;19.70;39.80;;;;;;5018899;28;20452;-58
2022/04/12 11:21:17;;;;;;;7.03;4.80;;;19.70;39.30;;;;;;5019051;28;20469;-56
2022/04/12 11:23:48;;;;;;;7.47;5.50;;;19.60;40.40;;;;;;5018699;28;20437;-55
2022/04/12 11:26:38;;;;;;;7.53;5.47;;;19.60;39.70;;;;;;5019324;28;20479;-51
2022/04/12 11:29:10;;;;;;;10.23;5.57;;;19.60;39.50;;;;;;5014007;28;20485;-56
2022/04/12 11:31:41;;;;;;;5.30;4.50;;;19.40;40.40;;;;;;5019269;28;20477;-56
2022/04/12 11:34:10;;;;;;;7.20;5.23;;;19.40;40.00;;;;;;5018376;28;20776;-55
2022/04/12 11:36:39;;;;;;;6.77;4.43;;;19.30;40.00;;;;;;5018360;28;20508;-54
2022/04/12 11:39:05;;;;;;;5.50;4.37;;;19.20;39.60;;;;;;5018476;28;20909;-56
2022/04/12 11:41:32;;;;;;;6.30;5.23;;;19.00;39.60;;;;;;5018512;28;20503;-56
2022/04/12 11:44:00;;;;;;;7.77;4.40;;;18.90;39.80;;;;;;5018544;28;20912;-54
2022/04/12 11:46:28;;;;;;;7.30;4.37;;;19.00;39.70;;;;;;5018070;28;20473;-56
2022/04/12 11:49:04;;;;;;;6.47;4.60;;;19.10;41.90;;;;;;5019099;28;20444;-53
2022/04/12 11:51:40;;;;;;;9.03;5.37;;;19.10;38.70;;;;;;5018698;28;20468;-56
2022/04/12 11:54:22;;;;;;;10.03;4.50;;;19.10;38.20;;;;;;5020663;28;20531;-55
2022/04/12 11:56:54;;;;;;;5.37;4.60;;;19.00;38.20;;;;;;5021489;28;20536;-54
2022/04/12 11:59:20;;;;;;;6.93;4.77;;;19.10;39.40;;;;;;5019997;28;20438;-56
2022/04/12 12:01:47;;;;;;;10.63;7.37;;;18.90;38.60;;;;;;5018525;28;20504;-53
2022/04/12 12:04:14;;;;;;;5.40;4.30;;;19.00;39.20;;;;;;5018630;28;20503;-55
2022/04/12 12:06:55;;;;;;;5.57;4.10;;;19.10;39.70;;;;;;5018082;28;20476;-55
2022/04/12 12:09:22;;;;;;;8.23;4.70;;;19.00;40.40;;;;;;5018711;28;20455;-55
2022/04/12 12:11:49;;;;;;;5.20;4.20;;;19.00;39.50;;;;;;5018567;28;20472;-55
2022/04/12 12:14:16;;;;;;;8.53;4.97;;;19.00;40.00;;;;;;5018131;28;20480;-56
2022/04/12 12:16:45;;;;;;;9.57;4.03;;;19.00;39.80;;;;;;5018128;28;20464;-56
2022/04/12 12:19:14;;;;;;;4.97;4.17;;;19.00;39.70;;;;;;5020634;28;20425;-55
2022/04/12 12:21:44;;;;;;;5.33;4.60;;;19.10;40.40;;;;;;5021282;28;20488;-56
2022/04/12 12:24:14;;;;;;;6.43;4.30;;;19.10;40.40;;;;;;5021488;28;20564;-55
2022/04/12 12:26:41;;;;;;;6.33;3.80;;;19.00;39.00;;;;;;5021673;28;20479;-54
2022/04/12 12:29:10;;;;;;;5.33;3.63;;;19.00;39.20;;;;;;5022005;28;20762;-55
2022/04/12 12:31:43;;;;;;;6.40;3.50;;;18.80;38.30;;;;;;5021635;28;20528;-54
2022/04/12 12:34:25;;;;;;;3.90;3.50;;;18.80;38.50;;;;;;5021292;28;20523;-54
2022/04/12 12:36:55;;;;;;;6.37;4.00;;;18.80;38.60;;;;;;5021610;28;20463;-54
2022/04/12 12:39:26;;;;;;;8.13;3.97;;;18.80;39.00;;;;;;5021205;28;20884;-57
2022/04/12 12:41:57;;;;;;;3.80;3.43;;;18.90;38.80;;;;;;5020978;28;20531;-59
2022/04/12 12:44:25;;;;;;;4.27;3.40;;;18.80;37.80;;;;;;5021104;28;20488;-55
2022/04/12 12:46:56;;;;;;;6.63;3.70;;;18.70;37.90;;;;;;5020933;28;21339;-56
2022/04/12 12:49:23;;;;;;;7.70;4.90;;;18.60;37.50;;;;;;5021100;28;20481;-51
2022/04/12 12:51:50;;;;;;;4.83;3.90;;;18.30;37.20;;;;;;5021397;28;20484;-54
2022/04/12 12:54:18;;;;;;;3.30;3.00;;;18.30;38.30;;;;;;5021050;28;20464;-54
2022/04/12 12:56:48;;;;;;;6.23;4.43;;;18.40;38.20;;;;;;5020986;28;20511;-55
2022/04/12 12:59:17;;;;;;;6.47;4.80;;;18.50;38.00;;;;;;5021634;28;20441;-55